sensor_id;sensor_type;location;lat;lon;timestamp;P1;durP1;ratioP1;P2;durP2;ratioP2
61638;SDS011;47544;52.484;4.658;2023-04-15T00:00:03;10.55;;;6.60;;
61638;SDS011;47544;52.484;4.658;2023-04-15T00:00:15;11.57;;;6.90;;
61638;SDS011;47544;52.484;4.658;2023-04-15T00:00:26;11.85;;;7.25;;
61638;SDS011;47544;52.484;4.658;2023-04-15T00:00:38;11.05;;;7.07;;
61638;SDS011;47544;52.484;4.658;2023-04-15T00:00:49;9.93;;;6.93;;
61638;SDS011;47544;52.484;4.658;2023-04-15T00:01:01;8.70;;;6.75;;
61638;SDS011;47544;52.484;4.658;2023-04-15T00:01:13;8.57;;;6.75;;
61638;SDS011;47544;52.484;4.658;2023-04-15T00:01:28;10.52;;;7.10;;
61638;SDS011;47544;52.484;4.658;2023-04-15T00:01:41;11.63;;;6.93;;
61638;SDS011;47544;52.484;4.658;2023-04-15T00:01:52;11.10;;;6.90;;
61638;SDS011;47544;52.484;4.658;2023-04-15T00:02:12;11.25;;;7.13;;
61638;SDS011;47544;52.484;4.658;2023-04-15T00:02:25;11.38;;;7.10;;
61638;SDS011;47544;52.484;4.658;2023-04-15T00:02:36;11.10;;;6.95;;
61638;SDS011;47544;52.484;4.658;2023-04-15T00:02:47;11.20;;;6.90;;
61638;SDS011;47544;52.484;4.658;2023-04-15T00:02:59;11.27;;;6.80;;
61638;SDS011;47544;52.484;4.658;2023-04-15T00:03:10;10.77;;;6.50;;
61638;SDS011;47544;52.484;4.658;2023-04-15T00:03:21;11.13;;;6.60;;
61638;SDS011;47544;52.484;4.658;2023-04-15T00:03:32;10.40;;;6.45;;
61638;SDS011;47544;52.484;4.658;2023-04-15T00:03:43;10.30;;;6.40;;
61638;SDS011;47544;52.484;4.658;2023-04-15T00:03:54;12.02;;;6.57;;
61638;SDS011;47544;52.484;4.658;2023-04-15T00:04:06;11.75;;;6.53;;
61638;SDS011;47544;52.484;4.658;2023-04-15T00:04:19;12.60;;;6.53;;
61638;SDS011;47544;52.484;4.658;2023-04-15T00:04:30;11.85;;;6.65;;
61638;SDS011;47544;52.484;4.658;2023-04-15T00:04:43;12.77;;;6.95;;
61638;SDS011;47544;52.484;4.658;2023-04-15T00:04:54;11.95;;;6.85;;
61638;SDS011;47544;52.484;4.658;2023-04-15T00:05:05;10.68;;;6.72;;
61638;SDS011;47544;52.484;4.658;2023-04-15T00:05:16;10.20;;;6.75;;
61638;SDS011;47544;52.484;4.658;2023-04-15T00:05:28;10.85;;;6.93;;
61638;SDS011;47544;52.484;4.658;2023-04-15T00:05:39;11.13;;;6.88;;
61638;SDS011;47544;52.484;4.658;2023-04-15T00:05:50;10.93;;;6.85;;
61638;SDS011;47544;52.484;4.658;2023-04-15T00:06:02;10.85;;;6.90;;
61638;SDS011;47544;52.484;4.658;2023-04-15T00:06:13;11.15;;;7.10;;
61638;SDS011;47544;52.484;4.658;2023-04-15T00:06:24;10.60;;;6.93;;
61638;SDS011;47544;52.484;4.658;2023-04-15T00:06:35;10.98;;;6.82;;
61638;SDS011;47544;52.484;4.658;2023-04-15T00:06:49;10.50;;;6.70;;
61638;SDS011;47544;52.484;4.658;2023-04-15T00:07:00;11.65;;;6.90;;
61638;SDS011;47544;52.484;4.658;2023-04-15T00:07:12;11.23;;;6.85;;
61638;SDS011;47544;52.484;4.658;2023-04-15T00:07:24;11.88;;;6.60;;
61638;SDS011;47544;52.484;4.658;2023-04-15T00:07:35;11.82;;;6.65;;
61638;SDS011;47544;52.484;4.658;2023-04-15T00:07:46;10.93;;;6.80;;
61638;SDS011;47544;52.484;4.658;2023-04-15T00:07:57;10.93;;;7.00;;
61638;SDS011;47544;52.484;4.658;2023-04-15T00:08:09;10.40;;;7.18;;
61638;SDS011;47544;52.484;4.658;2023-04-15T00:08:20;11.45;;;7.22;;
61638;SDS011;47544;52.484;4.658;2023-04-15T00:08:31;11.20;;;7.25;;
61638;SDS011;47544;52.484;4.658;2023-04-15T00:08:42;12.90;;;7.13;;
61638;SDS011;47544;52.484;4.658;2023-04-15T00:08:54;13.57;;;7.18;;
61638;SDS011;47544;52.484;4.658;2023-04-15T00:09:05;14.73;;;7.20;;
61638;SDS011;47544;52.484;4.658;2023-04-15T00:09:16;12.98;;;7.20;;
61638;SDS011;47544;52.484;4.658;2023-04-15T00:09:27;12.48;;;7.00;;
61638;SDS011;47544;52.484;4.658;2023-04-15T00:09:38;10.23;;;7.10;;
61638;SDS011;47544;52.484;4.658;2023-04-15T00:09:49;10.77;;;7.13;;
61638;SDS011;47544;52.484;4.658;2023-04-15T00:10:05;11.55;;;7.18;;
61638;SDS011;47544;52.484;4.658;2023-04-15T00:10:16;10.82;;;7.05;;
61638;SDS011;47544;52.484;4.658;2023-04-15T00:10:27;11.25;;;7.00;;
61638;SDS011;47544;52.484;4.658;2023-04-15T00:10:37;11.00;;;7.13;;
61638;SDS011;47544;52.484;4.658;2023-04-15T00:10:48;11.25;;;7.22;;
61638;SDS011;47544;52.484;4.658;2023-04-15T00:11:00;11.57;;;7.35;;
61638;SDS011;47544;52.484;4.658;2023-04-15T00:11:15;12.68;;;7.43;;
61638;SDS011;47544;52.484;4.658;2023-04-15T00:11:27;12.30;;;7.35;;
61638;SDS011;47544;52.484;4.658;2023-04-15T00:11:39;11.70;;;7.43;;
61638;SDS011;47544;52.484;4.658;2023-04-15T00:11:49;12.10;;;7.43;;
61638;SDS011;47544;52.484;4.658;2023-04-15T00:12:00;13.23;;;7.30;;
61638;SDS011;47544;52.484;4.658;2023-04-15T00:12:12;11.30;;;6.90;;
61638;SDS011;47544;52.484;4.658;2023-04-15T00:12:23;10.30;;;6.72;;
61638;SDS011;47544;52.484;4.658;2023-04-15T00:12:34;11.10;;;6.78;;
61638;SDS011;47544;52.484;4.658;2023-04-15T00:12:45;11.30;;;6.93;;
61638;SDS011;47544;52.484;4.658;2023-04-15T00:12:56;11.57;;;7.15;;
61638;SDS011;47544;52.484;4.658;2023-04-15T00:13:07;11.63;;;7.10;;
61638;SDS011;47544;52.484;4.658;2023-04-15T00:13:18;11.30;;;7.03;;
61638;SDS011;47544;52.484;4.658;2023-04-15T00:13:29;10.77;;;7.07;;
61638;SDS011;47544;52.484;4.658;2023-04-15T00:13:40;10.73;;;7.20;;
61638;SDS011;47544;52.484;4.658;2023-04-15T00:13:52;10.30;;;7.18;;
61638;SDS011;47544;52.484;4.658;2023-04-15T00:14:03;9.77;;;7.03;;
61638;SDS011;47544;52.484;4.658;2023-04-15T00:14:15;9.07;;;6.90;;
61638;SDS011;47544;52.484;4.658;2023-04-15T00:14:27;9.35;;;6.82;;
61638;SDS011;47544;52.484;4.658;2023-04-15T00:14:37;10.75;;;6.93;;
61638;SDS011;47544;52.484;4.658;2023-04-15T00:14:49;10.70;;;7.00;;
61638;SDS011;47544;52.484;4.658;2023-04-15T00:15:00;10.95;;;7.00;;
61638;SDS011;47544;52.484;4.658;2023-04-15T00:15:11;12.02;;;7.30;;
61638;SDS011;47544;52.484;4.658;2023-04-15T00:15:22;13.25;;;7.22;;
61638;SDS011;47544;52.484;4.658;2023-04-15T00:15:33;14.43;;;7.60;;
61638;SDS011;47544;52.484;4.658;2023-04-15T00:15:44;12.13;;;7.32;;
61638;SDS011;47544;52.484;4.658;2023-04-15T00:15:55;11.77;;;7.30;;
61638;SDS011;47544;52.484;4.658;2023-04-15T00:16:07;11.68;;;7.18;;
61638;SDS011;47544;52.484;4.658;2023-04-15T00:16:18;11.57;;;7.15;;
61638;SDS011;47544;52.484;4.658;2023-04-15T00:16:29;11.68;;;7.10;;
61638;SDS011;47544;52.484;4.658;2023-04-15T00:16:40;11.05;;;7.00;;
61638;SDS011;47544;52.484;4.658;2023-04-15T00:16:51;10.88;;;7.03;;
61638;SDS011;47544;52.484;4.658;2023-04-15T00:17:05;9.90;;;6.82;;
61638;SDS011;47544;52.484;4.658;2023-04-15T00:17:16;10.75;;;6.72;;
61638;SDS011;47544;52.484;4.658;2023-04-15T00:17:27;12.63;;;6.72;;
61638;SDS011;47544;52.484;4.658;2023-04-15T00:17:39;12.02;;;6.97;;
61638;SDS011;47544;52.484;4.658;2023-04-15T00:17:50;10.20;;;6.90;;
61638;SDS011;47544;52.484;4.658;2023-04-15T00:18:01;10.13;;;7.10;;
61638;SDS011;47544;52.484;4.658;2023-04-15T00:18:12;11.37;;;7.27;;
61638;SDS011;47544;52.484;4.658;2023-04-15T00:18:23;11.82;;;7.47;;
61638;SDS011;47544;52.484;4.658;2023-04-15T00:18:34;11.52;;;7.35;;
61638;SDS011;47544;52.484;4.658;2023-04-15T00:18:45;10.52;;;7.40;;
61638;SDS011;47544;52.484;4.658;2023-04-15T00:18:56;10.73;;;7.35;;
61638;SDS011;47544;52.484;4.658;2023-04-15T00:19:08;10.68;;;6.97;;
61638;SDS011;47544;52.484;4.658;2023-04-15T00:19:19;10.77;;;6.90;;
61638;SDS011;47544;52.484;4.658;2023-04-15T00:19:30;11.07;;;7.00;;
61638;SDS011;47544;52.484;4.658;2023-04-15T00:19:42;10.68;;;7.15;;
61638;SDS011;47544;52.484;4.658;2023-04-15T00:19:54;10.00;;;7.10;;
61638;SDS011;47544;52.484;4.658;2023-04-15T00:20:05;11.35;;;7.10;;
61638;SDS011;47544;52.484;4.658;2023-04-15T00:20:16;12.23;;;7.15;;
61638;SDS011;47544;52.484;4.658;2023-04-15T00:20:27;12.40;;;7.60;;
61638;SDS011;47544;52.484;4.658;2023-04-15T00:20:39;11.82;;;7.65;;
61638;SDS011;47544;52.484;4.658;2023-04-15T00:20:50;11.83;;;7.53;;
61638;SDS011;47544;52.484;4.658;2023-04-15T00:21:02;11.93;;;7.28;;
61638;SDS011;47544;52.484;4.658;2023-04-15T00:21:13;10.98;;;7.07;;
61638;SDS011;47544;52.484;4.658;2023-04-15T00:21:23;10.55;;;7.03;;
61638;SDS011;47544;52.484;4.658;2023-04-15T00:21:34;10.98;;;7.18;;
61638;SDS011;47544;52.484;4.658;2023-04-15T00:21:46;10.88;;;7.40;;
61638;SDS011;47544;52.484;4.658;2023-04-15T00:21:57;11.32;;;7.63;;
61638;SDS011;47544;52.484;4.658;2023-04-15T00:22:08;11.70;;;7.47;;
61638;SDS011;47544;52.484;4.658;2023-04-15T00:22:19;12.43;;;7.55;;
61638;SDS011;47544;52.484;4.658;2023-04-15T00:22:31;11.52;;;7.20;;
61638;SDS011;47544;52.484;4.658;2023-04-15T00:22:42;10.07;;;6.88;;
61638;SDS011;47544;52.484;4.658;2023-04-15T00:22:52;9.52;;;6.82;;
61638;SDS011;47544;52.484;4.658;2023-04-15T00:23:04;10.88;;;7.10;;
61638;SDS011;47544;52.484;4.658;2023-04-15T00:23:16;10.93;;;7.13;;
61638;SDS011;47544;52.484;4.658;2023-04-15T00:23:27;11.63;;;7.32;;
61638;SDS011;47544;52.484;4.658;2023-04-15T00:23:38;10.80;;;7.80;;
61638;SDS011;47544;52.484;4.658;2023-04-15T00:23:49;10.38;;;7.60;;
61638;SDS011;47544;52.484;4.658;2023-04-15T00:24:03;10.02;;;7.30;;
61638;SDS011;47544;52.484;4.658;2023-04-15T00:24:14;11.13;;;7.20;;
61638;SDS011;47544;52.484;4.658;2023-04-15T00:24:25;12.30;;;7.20;;
61638;SDS011;47544;52.484;4.658;2023-04-15T00:24:36;11.85;;;7.10;;
61638;SDS011;47544;52.484;4.658;2023-04-15T00:24:47;10.77;;;7.22;;
61638;SDS011;47544;52.484;4.658;2023-04-15T00:24:58;11.07;;;7.43;;
61638;SDS011;47544;52.484;4.658;2023-04-15T00:25:09;12.00;;;7.43;;
61638;SDS011;47544;52.484;4.658;2023-04-15T00:25:20;11.57;;;7.30;;
61638;SDS011;47544;52.484;4.658;2023-04-15T00:25:31;11.00;;;7.38;;
61638;SDS011;47544;52.484;4.658;2023-04-15T00:25:43;12.00;;;7.40;;
61638;SDS011;47544;52.484;4.658;2023-04-15T00:25:55;12.57;;;7.68;;
61638;SDS011;47544;52.484;4.658;2023-04-15T00:26:06;14.27;;;7.90;;
61638;SDS011;47544;52.484;4.658;2023-04-15T00:26:17;11.98;;;7.70;;
61638;SDS011;47544;52.484;4.658;2023-04-15T00:26:28;11.18;;;7.38;;
61638;SDS011;47544;52.484;4.658;2023-04-15T00:26:39;10.65;;;7.15;;
61638;SDS011;47544;52.484;4.658;2023-04-15T00:26:50;12.18;;;7.32;;
61638;SDS011;47544;52.484;4.658;2023-04-15T00:27:01;13.80;;;7.32;;
61638;SDS011;47544;52.484;4.658;2023-04-15T00:27:13;13.68;;;7.38;;
61638;SDS011;47544;52.484;4.658;2023-04-15T00:27:24;11.85;;;7.15;;
61638;SDS011;47544;52.484;4.658;2023-04-15T00:27:35;9.65;;;7.20;;
61638;SDS011;47544;52.484;4.658;2023-04-15T00:27:46;9.73;;;7.07;;
61638;SDS011;47544;52.484;4.658;2023-04-15T00:27:58;10.00;;;7.10;;
61638;SDS011;47544;52.484;4.658;2023-04-15T00:28:09;11.32;;;7.10;;
61638;SDS011;47544;52.484;4.658;2023-04-15T00:28:20;11.33;;;7.07;;
61638;SDS011;47544;52.484;4.658;2023-04-15T00:28:31;12.05;;;7.13;;
61638;SDS011;47544;52.484;4.658;2023-04-15T00:28:43;11.80;;;7.10;;
61638;SDS011;47544;52.484;4.658;2023-04-15T00:28:54;12.95;;;7.38;;
61638;SDS011;47544;52.484;4.658;2023-04-15T00:29:05;12.43;;;7.33;;
61638;SDS011;47544;52.484;4.658;2023-04-15T00:29:16;12.73;;;7.20;;
61638;SDS011;47544;52.484;4.658;2023-04-15T00:29:26;12.20;;;7.20;;
61638;SDS011;47544;52.484;4.658;2023-04-15T00:29:38;11.45;;;7.20;;
61638;SDS011;47544;52.484;4.658;2023-04-15T00:29:48;11.13;;;7.20;;
61638;SDS011;47544;52.484;4.658;2023-04-15T00:30:00;10.68;;;7.30;;
61638;SDS011;47544;52.484;4.658;2023-04-15T00:30:11;10.90;;;7.35;;
61638;SDS011;47544;52.484;4.658;2023-04-15T00:30:22;11.63;;;7.53;;
61638;SDS011;47544;52.484;4.658;2023-04-15T00:30:33;10.98;;;7.53;;
61638;SDS011;47544;52.484;4.658;2023-04-15T00:30:44;10.40;;;7.38;;
61638;SDS011;47544;52.484;4.658;2023-04-15T00:30:55;10.25;;;7.05;;
61638;SDS011;47544;52.484;4.658;2023-04-15T00:31:06;10.40;;;7.05;;
61638;SDS011;47544;52.484;4.658;2023-04-15T00:31:17;10.40;;;7.07;;
61638;SDS011;47544;52.484;4.658;2023-04-15T00:31:28;9.77;;;7.22;;
61638;SDS011;47544;52.484;4.658;2023-04-15T00:31:42;9.90;;;7.35;;
61638;SDS011;47544;52.484;4.658;2023-04-15T00:31:54;11.00;;;7.32;;
61638;SDS011;47544;52.484;4.658;2023-04-15T00:32:05;11.82;;;7.25;;
61638;SDS011;47544;52.484;4.658;2023-04-15T00:32:17;12.43;;;7.10;;
61638;SDS011;47544;52.484;4.658;2023-04-15T00:32:28;12.05;;;7.32;;
61638;SDS011;47544;52.484;4.658;2023-04-15T00:32:39;12.07;;;7.40;;
61638;SDS011;47544;52.484;4.658;2023-04-15T00:32:51;11.68;;;7.40;;
61638;SDS011;47544;52.484;4.658;2023-04-15T00:33:03;10.73;;;7.28;;
61638;SDS011;47544;52.484;4.658;2023-04-15T00:33:14;10.23;;;7.30;;
61638;SDS011;47544;52.484;4.658;2023-04-15T00:33:25;10.73;;;7.55;;
61638;SDS011;47544;52.484;4.658;2023-04-15T00:33:36;11.57;;;7.60;;
61638;SDS011;47544;52.484;4.658;2023-04-15T00:33:51;11.75;;;7.70;;
61638;SDS011;47544;52.484;4.658;2023-04-15T00:34:02;12.00;;;7.70;;
61638;SDS011;47544;52.484;4.658;2023-04-15T00:34:17;12.30;;;7.35;;
61638;SDS011;47544;52.484;4.658;2023-04-15T00:34:29;11.30;;;7.22;;
61638;SDS011;47544;52.484;4.658;2023-04-15T00:34:41;11.52;;;7.20;;
61638;SDS011;47544;52.484;4.658;2023-04-15T00:34:52;10.95;;;7.35;;
61638;SDS011;47544;52.484;4.658;2023-04-15T00:35:03;11.10;;;7.30;;
61638;SDS011;47544;52.484;4.658;2023-04-15T00:35:14;12.05;;;7.40;;
61638;SDS011;47544;52.484;4.658;2023-04-15T00:35:25;11.48;;;7.45;;
61638;SDS011;47544;52.484;4.658;2023-04-15T00:35:36;11.50;;;7.60;;
61638;SDS011;47544;52.484;4.658;2023-04-15T00:35:47;11.35;;;7.60;;
61638;SDS011;47544;52.484;4.658;2023-04-15T00:35:59;13.10;;;7.88;;
61638;SDS011;47544;52.484;4.658;2023-04-15T00:36:09;11.50;;;7.72;;
61638;SDS011;47544;52.484;4.658;2023-04-15T00:36:20;11.07;;;7.63;;
61638;SDS011;47544;52.484;4.658;2023-04-15T00:36:31;11.13;;;7.53;;
61638;SDS011;47544;52.484;4.658;2023-04-15T00:36:43;12.43;;;7.70;;
61638;SDS011;47544;52.484;4.658;2023-04-15T00:36:54;12.48;;;7.63;;
61638;SDS011;47544;52.484;4.658;2023-04-15T00:37:05;12.77;;;7.53;;
61638;SDS011;47544;52.484;4.658;2023-04-15T00:37:17;12.20;;;7.50;;
61638;SDS011;47544;52.484;4.658;2023-04-15T00:37:28;11.50;;;7.45;;
61638;SDS011;47544;52.484;4.658;2023-04-15T00:37:39;11.70;;;7.28;;
61638;SDS011;47544;52.484;4.658;2023-04-15T00:37:49;11.85;;;7.30;;
61638;SDS011;47544;52.484;4.658;2023-04-15T00:38:00;11.43;;;7.32;;
61638;SDS011;47544;52.484;4.658;2023-04-15T00:38:11;10.38;;;7.38;;
61638;SDS011;47544;52.484;4.658;2023-04-15T00:38:24;10.43;;;7.30;;
61638;SDS011;47544;52.484;4.658;2023-04-15T00:38:37;9.85;;;6.90;;
61638;SDS011;47544;52.484;4.658;2023-04-15T00:38:48;9.77;;;6.93;;
61638;SDS011;47544;52.484;4.658;2023-04-15T00:38:58;10.80;;;7.03;;
61638;SDS011;47544;52.484;4.658;2023-04-15T00:39:09;11.07;;;7.30;;
61638;SDS011;47544;52.484;4.658;2023-04-15T00:39:21;11.43;;;7.17;;
61638;SDS011;47544;52.484;4.658;2023-04-15T00:39:32;10.55;;;7.15;;
61638;SDS011;47544;52.484;4.658;2023-04-15T00:39:43;10.95;;;7.10;;
61638;SDS011;47544;52.484;4.658;2023-04-15T00:39:55;11.95;;;7.10;;
61638;SDS011;47544;52.484;4.658;2023-04-15T00:40:07;12.63;;;7.27;;
61638;SDS011;47544;52.484;4.658;2023-04-15T00:40:21;11.75;;;7.63;;
61638;SDS011;47544;52.484;4.658;2023-04-15T00:40:34;10.65;;;7.55;;
61638;SDS011;47544;52.484;4.658;2023-04-15T00:40:45;11.20;;;7.60;;
61638;SDS011;47544;52.484;4.658;2023-04-15T00:40:56;12.02;;;7.63;;
61638;SDS011;47544;52.484;4.658;2023-04-15T00:41:06;11.55;;;7.53;;
61638;SDS011;47544;52.484;4.658;2023-04-15T00:41:18;10.77;;;7.65;;
61638;SDS011;47544;52.484;4.658;2023-04-15T00:41:30;11.15;;;7.68;;
61638;SDS011;47544;52.484;4.658;2023-04-15T00:41:43;10.98;;;7.68;;
61638;SDS011;47544;52.484;4.658;2023-04-15T00:41:55;10.18;;;7.13;;
61638;SDS011;47544;52.484;4.658;2023-04-15T00:42:06;9.07;;;6.90;;
61638;SDS011;47544;52.484;4.658;2023-04-15T00:42:18;9.60;;;7.03;;
61638;SDS011;47544;52.484;4.658;2023-04-15T00:42:31;10.82;;;7.63;;
61638;SDS011;47544;52.484;4.658;2023-04-15T00:42:42;10.68;;;7.63;;
61638;SDS011;47544;52.484;4.658;2023-04-15T00:42:54;10.20;;;7.70;;
61638;SDS011;47544;52.484;4.658;2023-04-15T00:43:05;10.43;;;7.53;;
61638;SDS011;47544;52.484;4.658;2023-04-15T00:43:16;11.05;;;7.68;;
61638;SDS011;47544;52.484;4.658;2023-04-15T00:43:27;11.02;;;7.47;;
61638;SDS011;47544;52.484;4.658;2023-04-15T00:43:39;11.23;;;7.43;;
61638;SDS011;47544;52.484;4.658;2023-04-15T00:43:51;11.10;;;7.57;;
61638;SDS011;47544;52.484;4.658;2023-04-15T00:44:04;11.40;;;7.60;;
61638;SDS011;47544;52.484;4.658;2023-04-15T00:44:15;10.25;;;7.32;;
61638;SDS011;47544;52.484;4.658;2023-04-15T00:44:28;9.80;;;7.10;;
61638;SDS011;47544;52.484;4.658;2023-04-15T00:44:39;10.82;;;7.05;;
61638;SDS011;47544;52.484;4.658;2023-04-15T00:44:50;11.03;;;7.23;;
61638;SDS011;47544;52.484;4.658;2023-04-15T00:45:01;11.45;;;7.22;;
61638;SDS011;47544;52.484;4.658;2023-04-15T00:45:12;10.88;;;7.15;;
61638;SDS011;47544;52.484;4.658;2023-04-15T00:45:24;10.55;;;7.00;;
61638;SDS011;47544;52.484;4.658;2023-04-15T00:45:37;9.85;;;7.10;;
61638;SDS011;47544;52.484;4.658;2023-04-15T00:45:47;9.73;;;7.05;;
61638;SDS011;47544;52.484;4.658;2023-04-15T00:45:59;10.07;;;6.95;;
61638;SDS011;47544;52.484;4.658;2023-04-15T00:46:11;10.32;;;6.90;;
61638;SDS011;47544;52.484;4.658;2023-04-15T00:46:22;10.32;;;7.22;;
61638;SDS011;47544;52.484;4.658;2023-04-15T00:46:35;9.68;;;7.15;;
61638;SDS011;47544;52.484;4.658;2023-04-15T00:46:46;9.80;;;7.18;;
61638;SDS011;47544;52.484;4.658;2023-04-15T00:46:59;10.13;;;7.00;;
61638;SDS011;47544;52.484;4.658;2023-04-15T00:47:10;11.00;;;7.05;;
61638;SDS011;47544;52.484;4.658;2023-04-15T00:47:21;11.38;;;7.10;;
61638;SDS011;47544;52.484;4.658;2023-04-15T00:47:32;10.48;;;7.07;;
61638;SDS011;47544;52.484;4.658;2023-04-15T00:47:45;11.52;;;7.13;;
61638;SDS011;47544;52.484;4.658;2023-04-15T00:47:56;11.30;;;7.10;;
61638;SDS011;47544;52.484;4.658;2023-04-15T00:48:08;11.23;;;6.88;;
61638;SDS011;47544;52.484;4.658;2023-04-15T00:48:19;10.48;;;6.90;;
61638;SDS011;47544;52.484;4.658;2023-04-15T00:48:31;10.38;;;7.03;;
61638;SDS011;47544;52.484;4.658;2023-04-15T00:48:42;10.13;;;7.07;;
61638;SDS011;47544;52.484;4.658;2023-04-15T00:48:53;10.52;;;7.07;;
61638;SDS011;47544;52.484;4.658;2023-04-15T00:49:04;10.15;;;6.90;;
61638;SDS011;47544;52.484;4.658;2023-04-15T00:49:16;9.00;;;6.97;;
61638;SDS011;47544;52.484;4.658;2023-04-15T00:49:27;10.73;;;7.00;;
61638;SDS011;47544;52.484;4.658;2023-04-15T00:49:38;11.73;;;6.82;;
61638;SDS011;47544;52.484;4.658;2023-04-15T00:49:50;11.35;;;6.90;;
61638;SDS011;47544;52.484;4.658;2023-04-15T00:50:01;10.35;;;6.93;;
61638;SDS011;47544;52.484;4.658;2023-04-15T00:50:12;10.05;;;6.95;;
61638;SDS011;47544;52.484;4.658;2023-04-15T00:50:23;11.70;;;7.10;;
61638;SDS011;47544;52.484;4.658;2023-04-15T00:50:34;11.13;;;7.00;;
61638;SDS011;47544;52.484;4.658;2023-04-15T00:50:45;10.00;;;7.00;;
61638;SDS011;47544;52.484;4.658;2023-04-15T00:50:56;8.68;;;6.80;;
61638;SDS011;47544;52.484;4.658;2023-04-15T00:51:07;9.05;;;6.90;;
61638;SDS011;47544;52.484;4.658;2023-04-15T00:51:20;9.27;;;6.88;;
61638;SDS011;47544;52.484;4.658;2023-04-15T00:51:31;10.13;;;6.95;;
61638;SDS011;47544;52.484;4.658;2023-04-15T00:51:43;10.18;;;6.78;;
61638;SDS011;47544;52.484;4.658;2023-04-15T00:51:55;11.30;;;6.93;;
61638;SDS011;47544;52.484;4.658;2023-04-15T00:52:06;10.57;;;6.72;;
61638;SDS011;47544;52.484;4.658;2023-04-15T00:52:18;9.65;;;6.80;;
61638;SDS011;47544;52.484;4.658;2023-04-15T00:52:29;9.52;;;7.00;;
61638;SDS011;47544;52.484;4.658;2023-04-15T00:52:40;10.35;;;7.28;;
61638;SDS011;47544;52.484;4.658;2023-04-15T00:52:52;9.70;;;7.00;;
61638;SDS011;47544;52.484;4.658;2023-04-15T00:53:03;9.05;;;6.72;;
61638;SDS011;47544;52.484;4.658;2023-04-15T00:53:14;9.10;;;6.40;;
61638;SDS011;47544;52.484;4.658;2023-04-15T00:53:26;9.98;;;6.68;;
61638;SDS011;47544;52.484;4.658;2023-04-15T00:53:37;12.02;;;7.10;;
61638;SDS011;47544;52.484;4.658;2023-04-15T00:53:48;11.57;;;7.17;;
61638;SDS011;47544;52.484;4.658;2023-04-15T00:53:59;11.70;;;7.25;;
61638;SDS011;47544;52.484;4.658;2023-04-15T00:54:10;10.70;;;7.25;;
61638;SDS011;47544;52.484;4.658;2023-04-15T00:54:21;10.75;;;7.20;;
61638;SDS011;47544;52.484;4.658;2023-04-15T00:54:33;11.00;;;6.97;;
61638;SDS011;47544;52.484;4.658;2023-04-15T00:54:44;10.75;;;6.82;;
61638;SDS011;47544;52.484;4.658;2023-04-15T00:54:55;9.95;;;6.63;;
61638;SDS011;47544;52.484;4.658;2023-04-15T00:55:06;10.82;;;6.80;;
61638;SDS011;47544;52.484;4.658;2023-04-15T00:55:18;10.48;;;6.57;;
61638;SDS011;47544;52.484;4.658;2023-04-15T00:55:29;11.40;;;6.80;;
61638;SDS011;47544;52.484;4.658;2023-04-15T00:55:40;10.80;;;6.70;;
61638;SDS011;47544;52.484;4.658;2023-04-15T00:55:51;11.00;;;6.90;;
61638;SDS011;47544;52.484;4.658;2023-04-15T00:56:03;9.93;;;6.90;;
61638;SDS011;47544;52.484;4.658;2023-04-15T00:56:14;10.27;;;7.00;;
61638;SDS011;47544;52.484;4.658;2023-04-15T00:56:25;10.27;;;6.95;;
61638;SDS011;47544;52.484;4.658;2023-04-15T00:56:37;11.48;;;7.38;;
61638;SDS011;47544;52.484;4.658;2023-04-15T00:56:48;11.70;;;7.55;;
61638;SDS011;47544;52.484;4.658;2023-04-15T00:56:59;12.00;;;7.55;;
61638;SDS011;47544;52.484;4.658;2023-04-15T00:57:11;11.63;;;7.00;;
61638;SDS011;47544;52.484;4.658;2023-04-15T00:57:22;11.90;;;6.90;;
61638;SDS011;47544;52.484;4.658;2023-04-15T00:57:34;10.65;;;6.85;;
61638;SDS011;47544;52.484;4.658;2023-04-15T00:57:45;10.52;;;7.10;;
61638;SDS011;47544;52.484;4.658;2023-04-15T00:57:56;9.85;;;7.03;;
61638;SDS011;47544;52.484;4.658;2023-04-15T00:58:07;10.93;;;7.05;;
61638;SDS011;47544;52.484;4.658;2023-04-15T00:58:18;10.50;;;7.03;;
61638;SDS011;47544;52.484;4.658;2023-04-15T00:58:29;11.40;;;7.07;;
61638;SDS011;47544;52.484;4.658;2023-04-15T00:58:42;10.35;;;7.07;;
61638;SDS011;47544;52.484;4.658;2023-04-15T00:58:54;9.90;;;6.75;;
61638;SDS011;47544;52.484;4.658;2023-04-15T00:59:05;10.23;;;6.53;;
61638;SDS011;47544;52.484;4.658;2023-04-15T00:59:16;11.23;;;6.50;;
61638;SDS011;47544;52.484;4.658;2023-04-15T00:59:28;10.98;;;6.53;;
61638;SDS011;47544;52.484;4.658;2023-04-15T00:59:39;11.00;;;6.75;;
61638;SDS011;47544;52.484;4.658;2023-04-15T00:59:50;10.32;;;6.88;;
61638;SDS011;47544;52.484;4.658;2023-04-15T01:00:02;10.15;;;6.90;;
61638;SDS011;47544;52.484;4.658;2023-04-15T01:00:14;10.70;;;7.00;;
61638;SDS011;47544;52.484;4.658;2023-04-15T01:00:26;10.68;;;7.10;;
61638;SDS011;47544;52.484;4.658;2023-04-15T01:00:37;10.90;;;7.10;;
61638;SDS011;47544;52.484;4.658;2023-04-15T01:00:48;11.05;;;7.40;;
61638;SDS011;47544;52.484;4.658;2023-04-15T01:00:59;11.63;;;7.43;;
61638;SDS011;47544;52.484;4.658;2023-04-15T01:01:09;11.93;;;7.53;;
61638;SDS011;47544;52.484;4.658;2023-04-15T01:01:21;11.82;;;7.25;;
61638;SDS011;47544;52.484;4.658;2023-04-15T01:01:32;11.02;;;7.18;;
61638;SDS011;47544;52.484;4.658;2023-04-15T01:01:43;9.00;;;6.97;;
61638;SDS011;47544;52.484;4.658;2023-04-15T01:01:55;9.25;;;6.90;;
61638;SDS011;47544;52.484;4.658;2023-04-15T01:02:06;9.35;;;6.80;;
61638;SDS011;47544;52.484;4.658;2023-04-15T01:02:17;10.27;;;6.80;;
61638;SDS011;47544;52.484;4.658;2023-04-15T01:02:28;10.52;;;6.80;;
61638;SDS011;47544;52.484;4.658;2023-04-15T01:02:41;10.20;;;6.80;;
61638;SDS011;47544;52.484;4.658;2023-04-15T01:02:52;10.48;;;6.85;;
61638;SDS011;47544;52.484;4.658;2023-04-15T01:03:03;11.23;;;6.97;;
61638;SDS011;47544;52.484;4.658;2023-04-15T01:03:14;11.18;;;7.22;;
61638;SDS011;47544;52.484;4.658;2023-04-15T01:03:25;11.20;;;7.30;;
61638;SDS011;47544;52.484;4.658;2023-04-15T01:03:37;11.27;;;7.43;;
61638;SDS011;47544;52.484;4.658;2023-04-15T01:03:48;11.70;;;7.47;;
61638;SDS011;47544;52.484;4.658;2023-04-15T01:03:59;10.18;;;7.40;;
61638;SDS011;47544;52.484;4.658;2023-04-15T01:04:10;9.98;;;7.18;;
61638;SDS011;47544;52.484;4.658;2023-04-15T01:04:21;10.20;;;7.00;;
61638;SDS011;47544;52.484;4.658;2023-04-15T01:04:32;12.00;;;7.20;;
61638;SDS011;47544;52.484;4.658;2023-04-15T01:04:44;11.52;;;7.07;;
61638;SDS011;47544;52.484;4.658;2023-04-15T01:04:56;11.88;;;7.15;;
61638;SDS011;47544;52.484;4.658;2023-04-15T01:05:07;12.30;;;7.30;;
61638;SDS011;47544;52.484;4.658;2023-04-15T01:05:19;12.35;;;7.18;;
61638;SDS011;47544;52.484;4.658;2023-04-15T01:05:29;11.00;;;6.88;;
61638;SDS011;47544;52.484;4.658;2023-04-15T01:05:41;10.77;;;6.70;;
61638;SDS011;47544;52.484;4.658;2023-04-15T01:05:51;11.05;;;6.90;;
61638;SDS011;47544;52.484;4.658;2023-04-15T01:06:07;11.93;;;6.97;;
61638;SDS011;47544;52.484;4.658;2023-04-15T01:06:18;9.88;;;6.70;;
61638;SDS011;47544;52.484;4.658;2023-04-15T01:06:31;9.27;;;7.05;;
61638;SDS011;47544;52.484;4.658;2023-04-15T01:06:42;10.23;;;7.20;;
61638;SDS011;47544;52.484;4.658;2023-04-15T01:06:53;10.20;;;7.15;;
61638;SDS011;47544;52.484;4.658;2023-04-15T01:07:04;10.27;;;6.78;;
61638;SDS011;47544;52.484;4.658;2023-04-15T01:07:14;10.02;;;6.70;;
61638;SDS011;47544;52.484;4.658;2023-04-15T01:07:25;9.95;;;6.70;;
61638;SDS011;47544;52.484;4.658;2023-04-15T01:07:36;11.13;;;6.70;;
61638;SDS011;47544;52.484;4.658;2023-04-15T01:07:47;13.18;;;7.07;;
61638;SDS011;47544;52.484;4.658;2023-04-15T01:07:58;13.48;;;7.03;;